Time;durP1;ratioP1;P1;durP2;ratioP2;P2;SDS_P1;SDS_P2;PMS_P1;PMS_P2;Temp;Humidity;BMP_temperature;BMP_pressure;BME280_temperature;BME280_humidity;BME280_pressure;Samples;Min_cycle;Max_cycle;Signal;HPM_P1;HPM_P2
2022/07/17 00:01:47;;;;;;;0.90;0.90;;;11.80;99.90;;;;;;5005545;28;20182;-83
2022/07/17 00:04:13;;;;;;;1.45;1.17;;;12.30;99.90;;;;;;5006004;28;20340;-84
2022/07/17 00:06:38;;;;;;;0.70;0.70;;;11.80;99.90;;;;;;5012351;28;20184;-83
2022/07/17 00:09:04;;;;;;;1.98;0.93;;;11.80;99.90;;;;;;5013063;28;20224;-83
2022/07/17 00:11:30;;;;;;;1.77;0.90;;;11.80;99.90;;;;;;5011041;28;20173;-83
2022/07/17 00:13:55;;;;;;;3.60;2.22;;;11.90;99.90;;;;;;5012977;28;20650;-83
2022/07/17 00:16:21;;;;;;;1.75;1.05;;;11.80;99.90;;;;;;5011237;28;20186;-83
2022/07/17 00:18:47;;;;;;;1.17;1.10;;;11.80;99.90;;;;;;5002860;28;20200;-83
2022/07/17 00:21:12;;;;;;;1.67;1.05;;;11.80;99.90;;;;;;4986456;28;20260;-83
2022/07/17 00:23:39;;;;;;;9.23;1.73;;;11.80;99.90;;;;;;5004470;28;20184;-83
2022/07/17 00:26:04;;;;;;;0.82;0.82;;;11.80;99.90;;;;;;4982862;28;20224;-84
2022/07/17 00:28:30;;;;;;;1.15;1.00;;;11.80;99.90;;;;;;5003765;28;20276;-83
2022/07/17 00:30:56;;;;;;;1.10;1.00;;;12.60;99.90;;;;;;4986225;28;20577;-83
2022/07/17 00:33:21;;;;;;;1.85;1.13;;;11.80;99.90;;;;;;4986638;28;20185;-83
2022/07/17 00:35:47;;;;;;;3.70;1.48;;;11.80;99.90;;;;;;5001193;28;20662;-83
2022/07/17 00:38:13;;;;;;;1.92;1.15;;;11.80;99.90;;;;;;4985565;28;20185;-83
2022/07/17 00:40:39;;;;;;;1.42;1.13;;;11.80;99.90;;;;;;5003330;28;20178;-83
2022/07/17 00:43:05;;;;;;;1.08;0.98;;;11.80;99.90;;;;;;4985754;28;20185;-83
2022/07/17 00:45:30;;;;;;;0.93;0.80;;;11.80;99.90;;;;;;5003303;28;20202;-83
2022/07/17 00:47:59;;;;;;;0.90;0.82;;;11.80;99.90;;;;;;5003046;28;20206;-83
2022/07/17 00:50:37;;;;;;;1.35;1.10;;;12.20;99.90;;;;;;5005566;28;20185;-83
2022/07/17 00:53:04;;;;;;;1.35;1.25;;;11.90;99.90;;;;;;5002578;28;20173;-83
2022/07/17 00:55:30;;;;;;;0.70;0.70;;;11.90;99.90;;;;;;5003869;28;20300;-83
2022/07/17 00:58:00;;;;;;;1.05;0.88;;;11.80;99.90;;;;;;5001890;28;20192;-83
2022/07/17 01:00:26;;;;;;;2.67;1.15;;;11.80;99.90;;;;;;5002905;28;20261;-83
2022/07/17 01:02:53;;;;;;;1.10;1.00;;;11.90;99.90;;;;;;5001982;28;20174;-84
2022/07/17 01:05:19;;;;;;;0.98;0.85;;;11.90;99.90;;;;;;5011165;28;20181;-84
2022/07/17 01:07:46;;;;;;;1.90;1.38;;;11.90;99.90;;;;;;5012297;28;20217;-84
2022/07/17 01:10:12;;;;;;;3.72;1.17;;;11.90;99.90;;;;;;5012264;28;20195;-84
2022/07/17 01:12:38;;;;;;;1.10;1.00;;;11.90;99.90;;;;;;5013397;28;20190;-83
2022/07/17 01:15:05;;;;;;;1.05;1.00;;;11.90;99.90;;;;;;5011884;28;20246;-83
2022/07/17 01:17:31;;;;;;;1.23;0.95;;;11.90;99.90;;;;;;5012900;28;20193;-82
2022/07/17 01:19:57;;;;;;;0.80;0.80;;;11.90;99.90;;;;;;5013202;28;20178;-83
2022/07/17 01:22:22;;;;;;;1.10;0.98;;;11.90;99.90;;;;;;5028447;28;20177;-82
2022/07/17 01:24:48;;;;;;;3.55;1.17;;;11.90;99.90;;;;;;5013613;28;20177;-83
2022/07/17 01:27:15;;;;;;;0.73;0.73;;;11.90;99.90;;;;;;5012318;28;20611;-82
2022/07/17 01:29:41;;;;;;;0.55;0.55;;;12.00;99.90;;;;;;5028808;28;20681;-83
2022/07/17 01:32:08;;;;;;;0.82;0.82;;;11.90;99.90;;;;;;5028637;28;20236;-83
2022/07/17 01:34:33;;;;;;;1.00;0.95;;;11.90;99.90;;;;;;5013314;28;20212;-83
2022/07/17 01:36:59;;;;;;;1.02;0.80;;;11.90;99.90;;;;;;5012250;28;20545;-83
2022/07/17 01:42:09;;;;;;;1.00;0.80;;;11.90;99.90;;;;;;5012403;28;20188;-83
2022/07/17 01:44:35;;;;;;;1.10;1.00;;;12.00;99.90;;;;;;5009937;28;20188;-85
2022/07/17 01:47:01;;;;;;;0.85;0.85;;;12.00;99.90;;;;;;4995587;28;20653;-85
2022/07/17 01:49:27;;;;;;;3.03;1.25;;;11.90;99.90;;;;;;5012405;28;20242;-84
2022/07/17 01:51:52;;;;;;;1.58;0.93;;;12.00;99.90;;;;;;5012617;28;20193;-85
2022/07/17 01:54:18;;;;;;;0.70;0.70;;;12.00;99.90;;;;;;5011353;28;20542;-84
2022/07/17 01:56:43;;;;;;;1.17;1.08;;;12.00;99.90;;;;;;5012824;28;20182;-85
2022/07/17 01:59:09;;;;;;;1.50;1.10;;;12.00;99.90;;;;;;5012531;28;20626;-84
2022/07/17 02:01:35;;;;;;;0.88;0.68;;;12.00;99.90;;;;;;5010224;28;20211;-82
2022/07/17 02:04:00;;;;;;;1.25;1.17;;;12.10;99.90;;;;;;5012325;28;20188;-84
2022/07/17 02:06:26;;;;;;;0.82;0.82;;;12.10;99.90;;;;;;5010260;28;20264;-84
2022/07/17 02:08:51;;;;;;;3.13;1.40;;;12.00;99.90;;;;;;5013101;28;20228;-83
2022/07/17 02:11:18;;;;;;;1.95;0.90;;;12.10;99.90;;;;;;5011543;28;20193;-84
2022/07/17 02:13:44;;;;;;;1.00;0.80;;;12.00;99.90;;;;;;5028421;28;20181;-84
2022/07/17 02:16:09;;;;;;;1.08;1.00;;;12.10;99.90;;;;;;5012378;28;20200;-84
2022/07/17 02:18:35;;;;;;;1.35;0.82;;;12.00;99.90;;;;;;5012590;28;20183;-84
2022/07/17 02:21:01;;;;;;;1.33;1.00;;;12.00;99.90;;;;;;4996102;28;20257;-84
2022/07/17 02:23:28;;;;;;;0.80;0.80;;;12.10;99.90;;;;;;5016055;28;20177;-84
2022/07/17 02:25:54;;;;;;;0.98;0.77;;;12.10;99.90;;;;;;5017139;28;20678;-83
2022/07/17 02:28:20;;;;;;;1.30;1.10;;;12.10;99.90;;;;;;5015232;28;20740;-85
2022/07/17 02:30:46;;;;;;;1.50;0.75;;;12.10;99.90;;;;;;5016788;28;20244;-84
2022/07/17 02:33:12;;;;;;;0.93;0.82;;;12.10;99.90;;;;;;5015816;28;20626;-84
2022/07/17 02:35:38;;;;;;;3.53;1.05;;;12.10;99.90;;;;;;4999048;28;20177;-83
2022/07/17 02:38:03;;;;;;;1.20;1.15;;;12.00;99.90;;;;;;5015583;28;20251;-84
2022/07/17 02:40:29;;;;;;;0.75;0.75;;;12.00;99.90;;;;;;5031767;28;20177;-84
2022/07/17 02:42:55;;;;;;;1.05;1.02;;;12.00;99.90;;;;;;5015960;28;20654;-84
2022/07/17 02:45:24;;;;;;;2.92;1.15;;;12.00;99.90;;;;;;5015307;28;20177;-84
2022/07/17 02:47:54;;;;;;;0.88;0.75;;;11.90;99.90;;;;;;5015269;28;20201;-84
2022/07/17 02:50:20;;;;;;;0.85;0.60;;;11.90;99.90;;;;;;5016510;28;20239;-85
2022/07/17 02:52:46;;;;;;;0.70;0.70;;;12.00;99.90;;;;;;5015381;28;20634;-84
2022/07/17 02:55:12;;;;;;;0.65;0.65;;;12.00;99.90;;;;;;5031908;28;20180;-85
2022/07/17 02:57:37;;;;;;;0.98;0.90;;;12.60;99.90;;;;;;5015101;28;20181;-84
2022/07/17 03:00:09;;;;;;;0.77;0.70;;;11.90;99.90;;;;;;5016214;28;20173;-85
2022/07/17 03:02:35;;;;;;;0.68;0.68;;;11.90;99.90;;;;;;5016378;28;20187;-84
2022/07/17 03:05:01;;;;;;;0.70;0.70;;;11.80;99.90;;;;;;5016421;28;20619;-85
2022/07/17 03:07:27;;;;;;;0.68;0.68;;;11.80;99.90;;;;;;5014900;28;20212;-85
2022/07/17 03:09:52;;;;;;;0.55;0.55;;;12.50;99.90;;;;;;5031581;28;20177;-85
2022/07/17 03:12:18;;;;;;;0.90;0.80;;;11.70;99.90;;;;;;4998808;28;20187;-84
2022/07/17 03:14:44;;;;;;;0.60;0.60;;;11.70;99.90;;;;;;4998211;28;20557;-85
2022/07/17 03:17:09;;;;;;;1.00;0.90;;;11.70;99.90;;;;;;4998391;28;20181;-84
2022/07/17 03:19:35;;;;;;;1.23;0.90;;;12.20;99.90;;;;;;5014615;28;20189;-84
2022/07/17 03:22:01;;;;;;;0.60;0.60;;;11.80;99.90;;;;;;5016114;28;20541;-85
2022/07/17 03:24:26;;;;;;;1.02;0.95;;;11.80;99.90;;;;;;5031002;28;20684;-85
2022/07/17 03:26:52;;;;;;;0.68;0.68;;;11.80;99.90;;;;;;5031190;28;20610;-85
2022/07/17 03:29:18;;;;;;;0.85;0.85;;;11.80;99.90;;;;;;5015782;28;20690;-83
2022/07/17 03:31:44;;;;;;;0.70;0.70;;;11.80;99.90;;;;;;5015644;28;20181;-84
2022/07/17 03:34:10;;;;;;;1.30;1.20;;;11.90;99.90;;;;;;5015459;28;20208;-84
2022/07/17 03:36:36;;;;;;;2.88;1.42;;;11.90;99.90;;;;;;5015595;28;20208;-85
2022/07/17 03:39:02;;;;;;;0.73;0.73;;;11.80;99.90;;;;;;5030802;28;20177;-84
2022/07/17 03:41:27;;;;;;;1.33;1.00;;;11.80;99.90;;;;;;5014340;28;20177;-84
2022/07/17 03:43:53;;;;;;;1.45;1.13;;;11.90;99.90;;;;;;5014656;28;20209;-84
2022/07/17 03:46:19;;;;;;;2.05;1.00;;;11.90;99.90;;;;;;5015424;28;20231;-84
2022/07/17 03:48:44;;;;;;;1.23;0.93;;;12.80;99.90;;;;;;5013910;28;20744;-83
2022/07/17 03:51:10;;;;;;;3.20;1.50;;;12.00;99.90;;;;;;5015578;28;20178;-83
2022/07/17 03:53:35;;;;;;;1.05;0.95;;;11.90;99.90;;;;;;4997736;28;20189;-84
2022/07/17 03:56:01;;;;;;;1.38;1.27;;;12.10;99.90;;;;;;5015246;28;20265;-83
2022/07/17 03:58:27;;;;;;;1.65;1.10;;;12.00;99.90;;;;;;5015205;28;20192;-84
2022/07/17 04:00:53;;;;;;;1.42;1.33;;;12.10;99.90;;;;;;5015065;28;20264;-84
2022/07/17 04:03:18;;;;;;;1.25;1.15;;;12.10;99.90;;;;;;5014158;28;20181;-83
2022/07/17 04:05:44;;;;;;;2.25;1.52;;;12.10;99.90;;;;;;5015243;28;20181;-83
2022/07/17 04:08:09;;;;;;;1.58;1.25;;;12.10;99.90;;;;;;5015162;28;20213;-84
2022/07/17 04:10:36;;;;;;;2.17;1.58;;;12.20;99.90;;;;;;5014931;28;20213;-83
2022/07/17 04:13:02;;;;;;;1.70;1.60;;;12.30;99.90;;;;;;5015451;28;20693;-83
2022/07/17 04:18:12;;;;;;;3.30;1.13;;;12.30;99.90;;;;;;5014855;28;20176;-83
2022/07/17 04:20:38;;;;;;;1.77;1.58;;;12.20;99.90;;;;;;5013482;28;20177;-84
2022/07/17 04:23:05;;;;;;;2.42;1.98;;;12.40;99.90;;;;;;5013559;28;20188;-83
2022/07/17 04:25:31;;;;;;;2.35;2.10;;;12.30;99.90;;;;;;5014861;28;20184;-84
2022/07/17 04:27:56;;;;;;;4.88;1.63;;;12.20;99.90;;;;;;5013608;28;20213;-84
2022/07/17 04:30:22;;;;;;;2.22;2.00;;;12.40;99.90;;;;;;5015121;28;20643;-84
2022/07/17 04:32:48;;;;;;;3.55;2.50;;;12.40;99.90;;;;;;5013365;28;20177;-84
2022/07/17 04:35:13;;;;;;;2.03;1.58;;;12.40;99.90;;;;;;4997358;28;20267;-84
2022/07/17 04:37:39;;;;;;;3.83;2.53;;;12.40;99.90;;;;;;5013765;28;20181;-84
2022/07/17 04:40:06;;;;;;;3.78;2.47;;;12.40;99.90;;;;;;5030062;28;20279;-83
2022/07/17 04:42:31;;;;;;;3.40;2.65;;;12.40;99.90;;;;;;5013353;28;20204;-84
2022/07/17 04:44:58;;;;;;;3.00;2.25;;;12.40;99.90;;;;;;4996408;28;20693;-84
2022/07/17 04:47:23;;;;;;;6.50;3.20;;;12.40;99.90;;;;;;5013171;28;20173;-83
2022/07/17 04:49:49;;;;;;;3.78;3.00;;;12.40;99.90;;;;;;5013273;28;20231;-84
2022/07/17 04:52:15;;;;;;;3.10;2.78;;;12.40;99.90;;;;;;5014557;28;20514;-83
2022/07/17 04:54:40;;;;;;;4.70;3.05;;;12.80;99.90;;;;;;5029852;28;20189;-84
2022/07/17 04:57:06;;;;;;;4.70;3.33;;;12.30;99.90;;;;;;5029957;28;20267;-84
2022/07/17 04:59:32;;;;;;;4.30;3.28;;;12.40;99.90;;;;;;5014500;28;20264;-84
2022/07/17 05:01:57;;;;;;;2.95;2.65;;;12.40;99.90;;;;;;5013036;28;20184;-84
2022/07/17 05:04:23;;;;;;;3.85;1.92;;;12.80;99.90;;;;;;5014284;28;20181;-84
2022/07/17 05:06:49;;;;;;;3.25;2.08;;;12.50;99.90;;;;;;5014308;28;20244;-84
2022/07/17 05:09:14;;;;;;;2.13;1.75;;;12.40;99.90;;;;;;5017948;28;20221;-84
2022/07/17 05:11:40;;;;;;;1.95;1.73;;;12.50;99.90;;;;;;5020874;28;20221;-84
2022/07/17 05:14:05;;;;;;;2.60;1.70;;;12.50;99.90;;;;;;5019288;28;20181;-84
2022/07/17 05:16:31;;;;;;;2.80;1.60;;;12.50;99.90;;;;;;5025454;28;20192;-83
2022/07/17 05:18:57;;;;;;;2.42;1.70;;;12.50;99.90;;;;;;5038372;28;20154;-85
2022/07/17 05:21:22;;;;;;;1.40;1.30;;;12.60;99.90;;;;;;5037857;28;20181;-84
2022/07/17 05:23:48;;;;;;;1.38;1.13;;;12.60;99.90;;;;;;5054255;28;20189;-83
2022/07/17 05:26:13;;;;;;;1.38;1.20;;;12.50;99.90;;;;;;5019299;28;20189;-85
2022/07/17 05:28:39;;;;;;;2.53;1.08;;;12.60;99.90;;;;;;5023913;28;20710;-86
2022/07/17 05:31:05;;;;;;;1.20;1.10;;;12.70;99.90;;;;;;5027319;28;20185;-84
2022/07/17 05:33:31;;;;;;;0.82;0.82;;;12.80;99.90;;;;;;5021223;28;20196;-84
2022/07/17 05:35:57;;;;;;;1.02;1.00;;;12.90;99.90;;;;;;5037310;28;20176;-86
2022/07/17 05:38:22;;;;;;;0.85;0.80;;;12.90;99.90;;;;;;5030349;28;20169;-85
2022/07/17 05:40:48;;;;;;;1.17;0.98;;;12.90;99.90;;;;;;4998342;28;20197;-86
2022/07/17 05:43:13;;;;;;;0.70;0.70;;;13.00;99.90;;;;;;4981485;28;20274;-83
2022/07/17 05:45:39;;;;;;;0.95;0.95;;;13.00;99.90;;;;;;5013009;28;20553;-85
2022/07/17 05:48:06;;;;;;;1.70;1.27;;;13.20;99.90;;;;;;5027775;28;20215;-83
2022/07/17 05:50:33;;;;;;;1.40;1.15;;;13.10;99.90;;;;;;5012470;28;20191;-84
2022/07/17 05:52:59;;;;;;;1.52;1.35;;;13.20;99.90;;;;;;5006406;28;20186;-85
2022/07/17 05:55:25;;;;;;;1.10;1.00;;;13.10;99.90;;;;;;5010189;28;20181;-84
2022/07/17 05:57:51;;;;;;;2.20;1.10;;;13.10;99.90;;;;;;5011693;28;20654;-85
2022/07/17 06:00:18;;;;;;;1.40;1.13;;;13.10;99.90;;;;;;5010433;28;20630;-85
2022/07/17 06:02:43;;;;;;;0.90;0.90;;;13.10;99.90;;;;;;5026799;28;20676;-85
2022/07/17 06:05:09;;;;;;;1.83;1.00;;;13.10;99.90;;;;;;5011312;28;20185;-86
2022/07/17 06:07:36;;;;;;;1.67;1.40;;;13.00;99.90;;;;;;5013850;28;20219;-85
2022/07/17 06:10:02;;;;;;;1.38;1.10;;;13.10;99.90;;;;;;5015260;28;20268;-85
2022/07/17 06:12:28;;;;;;;2.33;1.27;;;13.10;99.90;;;;;;5009860;28;20185;-85
2022/07/17 06:14:53;;;;;;;1.25;1.15;;;13.10;99.90;;;;;;5012305;28;20653;-84
2022/07/17 06:17:19;;;;;;;1.63;1.52;;;13.10;99.90;;;;;;5011256;28;20264;-84
2022/07/17 06:19:44;;;;;;;1.63;1.45;;;13.20;99.90;;;;;;5010744;28;20539;-84
2022/07/17 06:22:10;;;;;;;2.28;1.50;;;13.20;99.90;;;;;;4995042;28;20212;-85
2022/07/17 06:24:36;;;;;;;1.30;1.20;;;13.30;99.90;;;;;;4993869;28;20649;-84
2022/07/17 06:27:01;;;;;;;1.55;1.25;;;13.50;99.90;;;;;;5011005;28;20752;-85
2022/07/17 06:29:27;;;;;;;1.67;1.25;;;13.60;99.90;;;;;;5027486;28;20233;-83
2022/07/17 06:31:52;;;;;;;1.42;1.00;;;13.70;99.90;;;;;;5012556;28;20223;-85
2022/07/17 06:34:18;;;;;;;1.40;1.27;;;13.70;99.90;;;;;;4999602;28;20174;-86
2022/07/17 06:36:43;;;;;;;1.13;1.00;;;13.70;99.90;;;;;;5040183;28;20173;-86
2022/07/17 06:39:09;;;;;;;1.65;1.10;;;13.90;99.90;;;;;;5021688;28;20196;-86
2022/07/17 06:41:35;;;;;;;1.90;1.30;;;14.00;99.90;;;;;;5022086;28;20189;-85
2022/07/17 06:44:00;;;;;;;1.35;0.80;;;14.00;99.90;;;;;;5014951;28;20235;-85
2022/07/17 06:46:26;;;;;;;1.10;0.63;;;13.90;99.90;;;;;;5012745;28;20189;-85
2022/07/17 06:48:51;;;;;;;0.70;0.70;;;13.90;99.90;;;;;;4994479;28;20299;-84
2022/07/17 06:51:18;;;;;;;3.80;0.88;;;13.70;99.90;;;;;;5011942;28;20711;-83
2022/07/17 06:53:43;;;;;;;2.60;0.80;;;13.70;99.90;;;;;;5004165;28;20191;-85
2022/07/17 06:56:09;;;;;;;1.73;1.35;;;13.80;99.90;;;;;;5001194;28;20269;-85
2022/07/17 06:58:35;;;;;;;1.25;1.00;;;14.00;99.90;;;;;;5001303;28;20193;-85
2022/07/17 07:01:01;;;;;;;0.70;0.65;;;14.30;99.90;;;;;;5003460;28;20631;-86
2022/07/17 07:03:26;;;;;;;0.73;0.73;;;14.60;99.90;;;;;;4989206;28;20184;-84
2022/07/17 07:05:52;;;;;;;0.50;0.50;;;14.70;99.90;;;;;;5008385;28;20640;-84
2022/07/17 07:08:18;;;;;;;1.00;0.90;;;14.90;99.90;;;;;;4984568;28;20210;-85
2022/07/17 07:10:44;;;;;;;0.60;0.60;;;15.00;99.90;;;;;;5005689;28;20221;-84
2022/07/17 07:13:09;;;;;;;0.73;0.52;;;14.90;99.90;;;;;;5004657;28;20186;-85
2022/07/17 07:15:35;;;;;;;0.60;0.60;;;14.80;99.90;;;;;;5014346;28;20261;-90
2022/07/17 07:18:01;;;;;;;0.57;0.57;;;14.70;99.90;;;;;;5014251;28;20224;-85
2022/07/17 07:20:26;;;;;;;1.00;0.68;;;14.70;99.90;;;;;;5015189;28;20180;-85
2022/07/17 07:22:52;;;;;;;0.65;0.65;;;14.70;99.90;;;;;;5013702;28;20304;-85
2022/07/17 07:25:18;;;;;;;0.40;0.40;;;14.90;99.90;;;;;;4997721;28;20205;-85
2022/07/17 07:27:43;;;;;;;1.27;0.98;;;15.20;99.90;;;;;;4997765;28;20225;-84
2022/07/17 07:30:10;;;;;;;0.60;0.60;;;15.30;99.90;;;;;;5014617;28;20304;-84
2022/07/17 07:32:37;;;;;;;0.68;0.68;;;15.40;99.90;;;;;;5008144;28;20177;-84
2022/07/17 07:35:04;;;;;;;0.68;0.68;;;15.30;99.90;;;;;;5024373;28;20241;-85
2022/07/17 07:37:29;;;;;;;2.90;0.50;;;15.10;99.90;;;;;;5002844;28;20752;-83
2022/07/17 07:39:55;;;;;;;0.60;0.60;;;15.00;99.90;;;;;;5005073;28;20200;-84
2022/07/17 07:42:21;;;;;;;1.00;0.70;;;15.10;99.90;;;;;;5000135;28;20178;-85
2022/07/17 07:44:47;;;;;;;1.23;1.13;;;15.20;99.90;;;;;;4997893;28;20548;-86
2022/07/17 07:47:12;;;;;;;1.67;0.85;;;15.50;99.90;;;;;;4996405;28;20181;-86
2022/07/17 07:49:38;;;;;;;0.60;0.60;;;15.70;99.90;;;;;;5004675;28;20267;-84
2022/07/17 07:52:04;;;;;;;0.80;0.80;;;15.90;99.90;;;;;;5007241;28;20199;-84
2022/07/17 07:54:30;;;;;;;0.68;0.68;;;16.00;99.90;;;;;;5014917;28;20194;-85
2022/07/17 07:56:55;;;;;;;0.88;0.70;;;16.00;99.90;;;;;;5014205;28;20182;-85
2022/07/17 07:59:21;;;;;;;0.60;0.60;;;16.10;99.90;;;;;;5008158;28;20636;-86
2022/07/17 08:01:46;;;;;;;0.60;0.60;;;16.20;99.90;;;;;;4995011;28;20185;-85
2022/07/17 08:04:12;;;;;;;0.52;0.52;;;16.10;99.90;;;;;;4977531;28;20687;-85
2022/07/17 08:06:38;;;;;;;1.00;0.68;;;16.10;99.90;;;;;;4993705;28;20178;-84
2022/07/17 08:09:04;;;;;;;0.55;0.55;;;16.20;99.90;;;;;;4994697;28;20268;-85
2022/07/17 08:11:30;;;;;;;1.02;0.65;;;16.30;99.90;;;;;;4994756;28;20173;-86
2022/07/17 08:13:55;;;;;;;0.70;0.68;;;16.60;99.90;;;;;;4993577;28;20189;-84
2022/07/17 08:16:21;;;;;;;0.60;0.60;;;16.70;99.90;;;;;;5002683;28;20197;-85
2022/07/17 08:18:46;;;;;;;0.65;0.63;;;16.70;99.90;;;;;;5002661;28;20558;-85
2022/07/17 08:21:12;;;;;;;0.65;0.52;;;16.90;99.90;;;;;;5010731;28;20181;-90
2022/07/17 08:23:38;;;;;;;0.68;0.60;;;17.00;99.90;;;;;;5013381;28;20181;-84
2022/07/17 08:26:03;;;;;;;0.65;0.60;;;17.00;99.90;;;;;;4996638;28;20533;-84
2022/07/17 08:28:29;;;;;;;0.73;0.70;;;17.20;99.90;;;;;;5002487;28;20296;-86
2022/07/17 08:30:55;;;;;;;0.88;0.70;;;17.40;99.90;;;;;;5001951;28;20177;-84
2022/07/17 08:33:20;;;;;;;2.38;0.82;;;17.50;99.90;;;;;;4984555;28;20185;-85
2022/07/17 08:35:46;;;;;;;0.90;0.88;;;17.60;99.90;;;;;;5002703;28;20177;-86
2022/07/17 08:38:12;;;;;;;1.48;1.15;;;17.70;99.90;;;;;;5003385;28;20553;-86
2022/07/17 08:40:38;;;;;;;1.67;1.35;;;17.60;99.90;;;;;;5004201;28;20178;-84
2022/07/17 08:43:06;;;;;;;1.00;0.90;;;17.50;99.90;;;;;;5004370;28;20652;-84
2022/07/17 08:45:32;;;;;;;1.83;0.98;;;17.40;99.90;;;;;;5016068;28;20273;-86
2022/07/17 08:47:58;;;;;;;0.68;0.68;;;17.50;99.90;;;;;;4991708;28;20232;-85
2022/07/17 08:50:29;;;;;;;2.60;1.10;;;17.60;99.90;;;;;;5005356;28;20615;-86
2022/07/17 08:52:55;;;;;;;1.27;0.60;;;17.60;99.90;;;;;;5003789;28;20201;-86
2022/07/17 08:55:21;;;;;;;1.65;0.80;;;17.70;99.90;;;;;;5012543;28;20185;-87
2022/07/17 08:57:46;;;;;;;1.40;0.82;;;17.90;99.90;;;;;;5002392;28;20643;-85
2022/07/17 09:00:18;;;;;;;1.10;1.00;;;18.00;99.90;;;;;;4995256;28;20178;-85
2022/07/17 09:02:57;;;;;;;1.85;1.50;;;18.00;99.90;;;;;;5005169;28;20180;-85
2022/07/17 09:05:25;;;;;;;2.20;1.30;;;18.10;99.90;;;;;;5002942;28;20204;-84
2022/07/17 09:07:50;;;;;;;1.70;1.30;;;18.20;99.90;;;;;;5007325;28;20316;-86
2022/07/17 09:10:17;;;;;;;5.22;1.42;;;18.30;99.90;;;;;;5012077;28;20264;-86
2022/07/17 09:12:42;;;;;;;1.67;1.10;;;18.40;99.90;;;;;;5014285;28;20199;-85
2022/07/17 09:15:18;;;;;;;1.00;0.90;;;18.40;99.90;;;;;;5013008;28;20702;-86
2022/07/17 09:17:50;;;;;;;2.13;1.40;;;18.50;99.90;;;;;;4997245;28;20184;-83
2022/07/17 09:20:16;;;;;;;0.75;0.63;;;18.40;99.90;;;;;;5013229;28;20181;-83
2022/07/17 09:22:42;;;;;;;1.30;1.10;;;18.50;99.90;;;;;;5014282;28;20255;-84
2022/07/17 09:25:08;;;;;;;2.35;1.20;;;18.70;99.90;;;;;;5013542;28;20242;-84
2022/07/17 09:27:34;;;;;;;2.03;0.80;;;18.70;99.90;;;;;;5014450;28;20189;-85
2022/07/17 09:30:02;;;;;;;1.55;1.13;;;18.80;99.90;;;;;;5012571;28;20237;-84
2022/07/17 09:32:34;;;;;;;2.33;1.10;;;18.60;99.90;;;;;;5013925;28;20580;-85
2022/07/17 09:35:02;;;;;;;2.83;1.50;;;18.60;99.90;;;;;;5006559;28;20210;-85
2022/07/17 09:37:30;;;;;;;1.58;1.10;;;18.80;99.90;;;;;;4993378;28;20180;-83
2022/07/17 09:39:56;;;;;;;2.38;1.00;;;19.00;99.90;;;;;;4993380;28;20280;-85
2022/07/17 09:42:23;;;;;;;1.55;1.13;;;19.20;99.90;;;;;;4994144;28;20178;-85
2022/07/17 09:45:04;;;;;;;1.60;1.30;;;19.20;99.90;;;;;;4994331;28;20182;-85
2022/07/17 09:47:31;;;;;;;1.20;1.10;;;19.10;99.90;;;;;;4993860;28;20996;-85
2022/07/17 09:49:59;;;;;;;1.35;1.25;;;19.10;99.90;;;;;;4994998;28;20235;-83
2022/07/17 09:52:29;;;;;;;1.20;1.10;;;19.20;99.90;;;;;;4994290;28;20178;-84
2022/07/17 09:54:55;;;;;;;1.00;0.90;;;19.30;99.90;;;;;;4994095;28;20166;-84
2022/07/17 09:57:29;;;;;;;1.80;1.30;;;19.40;99.90;;;;;;4994084;28;20185;-84
2022/07/17 09:59:57;;;;;;;2.72;1.30;;;19.40;99.90;;;;;;4994240;28;20162;-84
2022/07/17 10:02:24;;;;;;;2.15;1.40;;;19.50;99.90;;;;;;4993940;28;20184;-83
2022/07/17 10:04:51;;;;;;;1.40;1.00;;;19.70;99.90;;;;;;4993897;28;20273;-83
2022/07/17 10:07:17;;;;;;;2.05;1.38;;;19.70;99.90;;;;;;4992847;28;20181;-84
2022/07/17 10:09:43;;;;;;;1.88;1.35;;;19.60;99.90;;;;;;4992798;28;20225;-82
2022/07/17 10:12:09;;;;;;;3.60;1.40;;;19.80;99.90;;;;;;4992898;28;20178;-83
2022/07/17 10:14:38;;;;;;;5.32;2.13;;;19.90;99.90;;;;;;4992762;28;20260;-84
2022/07/17 10:17:19;;;;;;;1.23;0.95;;;20.00;99.90;;;;;;4992685;28;20178;-84
2022/07/17 10:19:54;;;;;;;1.33;0.95;;;20.00;99.90;;;;;;4993533;28;20174;-84
2022/07/17 10:22:21;;;;;;;1.67;1.13;;;19.80;99.90;;;;;;4993325;28;20627;-84
2022/07/17 10:24:46;;;;;;;2.30;1.33;;;19.70;99.90;;;;;;4993405;28;20237;-85
2022/07/17 10:27:29;;;;;;;1.92;1.50;;;19.80;99.90;;;;;;4992501;28;20182;-84
2022/07/17 10:30:09;;;;;;;2.58;1.30;;;19.90;99.90;;;;;;4993947;28;20727;-84
2022/07/17 10:32:35;;;;;;;1.75;1.45;;;19.90;99.90;;;;;;4993626;28;20249;-84
2022/07/17 10:35:07;;;;;;;2.05;0.90;;;20.20;99.90;;;;;;4993799;28;20285;-84
2022/07/17 10:37:39;;;;;;;0.70;0.70;;;20.50;99.90;;;;;;4993433;28;20174;-84
2022/07/17 10:40:11;;;;;;;2.17;1.02;;;20.50;99.90;;;;;;4992579;28;20178;-83
2022/07/17 10:42:51;;;;;;;1.85;1.00;;;20.50;99.90;;;;;;4999926;28;20745;-86
2022/07/17 10:45:18;;;;;;;0.90;0.90;;;20.30;99.90;;;;;;5017222;28;20188;-83
2022/07/17 10:47:53;;;;;;;3.95;0.90;;;20.30;99.90;;;;;;5016952;28;20197;-83
2022/07/17 10:50:29;;;;;;;1.20;1.00;;;20.20;99.80;;;;;;5017111;28;20185;-83
2022/07/17 10:53:09;;;;;;;1.50;0.93;;;20.10;99.90;;;;;;5026915;28;20182;-83
2022/07/17 10:55:37;;;;;;;2.08;1.10;;;20.20;99.90;;;;;;4997722;28;20269;-82
2022/07/17 10:58:13;;;;;;;1.73;0.90;;;20.20;99.90;;;;;;4996541;28;20186;-83
2022/07/17 11:00:39;;;;;;;1.10;0.70;;;20.30;99.90;;;;;;4997641;28;20259;-84
2022/07/17 11:03:13;;;;;;;1.67;0.98;;;20.40;97.90;;;;;;4980132;28;20329;-84
2022/07/17 11:05:40;;;;;;;3.90;1.67;;;20.50;99.90;;;;;;4997201;28;20708;-83
2022/07/17 11:08:09;;;;;;;1.02;0.95;;;20.50;99.80;;;;;;4997048;28;20259;-83
2022/07/17 11:10:36;;;;;;;0.77;0.77;;;20.70;99.90;;;;;;4996784;28;20182;-83
2022/07/17 11:13:16;;;;;;;0.73;0.68;;;20.40;99.90;;;;;;5015200;28;20173;-83
2022/07/17 11:15:46;;;;;;;0.60;0.60;;;20.00;99.90;;;;;;4982266;28;20181;-83
2022/07/17 11:18:17;;;;;;;0.77;0.77;;;19.90;99.90;;;;;;5000744;28;20190;-84
2022/07/17 11:20:51;;;;;;;1.50;1.10;;;19.60;99.90;;;;;;5026118;28;20185;-83
2022/07/17 11:23:17;;;;;;;0.75;0.63;;;19.60;99.90;;;;;;5020818;28;20154;-84
2022/07/17 11:26:02;;;;;;;1.15;0.95;;;19.80;99.90;;;;;;5020554;28;20163;-84
2022/07/17 11:28:39;;;;;;;0.80;0.80;;;20.30;99.90;;;;;;5019980;28;20221;-89
2022/07/17 11:31:22;;;;;;;1.77;1.00;;;20.70;97.60;;;;;;4986972;28;20193;-83
2022/07/17 11:33:54;;;;;;;2.05;0.68;;;20.90;97.40;;;;;;5001315;28;20162;-84
2022/07/17 11:36:31;;;;;;;1.42;1.10;;;21.00;91.20;;;;;;5018322;28;20158;-83
2022/07/17 11:38:59;;;;;;;0.55;0.55;;;21.10;88.30;;;;;;5020728;28;20182;-84
2022/07/17 11:41:36;;;;;;;1.15;0.63;;;21.00;89.20;;;;;;5020519;28;20174;-83
2022/07/17 11:44:04;;;;;;;0.68;0.68;;;21.10;89.40;;;;;;5012481;28;20181;-84
2022/07/17 11:46:31;;;;;;;0.98;0.75;;;21.20;88.70;;;;;;5015262;28;20186;-84
2022/07/17 11:48:57;;;;;;;0.52;0.52;;;21.30;89.70;;;;;;5015871;28;20244;-84
2022/07/17 11:51:41;;;;;;;1.83;0.63;;;21.30;88.50;;;;;;5001300;28;20584;-83
2022/07/17 11:54:10;;;;;;;0.85;0.70;;;21.10;86.50;;;;;;4996040;28;20216;-84
2022/07/17 11:56:36;;;;;;;0.50;0.50;;;21.30;85.30;;;;;;4995967;28;20219;-82
2022/07/17 11:59:02;;;;;;;0.65;0.60;;;21.30;82.30;;;;;;4995032;28;20190;-83
2022/07/17 12:01:39;;;;;;;0.60;0.60;;;21.50;85.30;;;;;;4994804;28;20186;-83
2022/07/17 12:04:08;;;;;;;0.65;0.52;;;21.50;83.00;;;;;;4996198;28;20162;-84
2022/07/17 12:06:34;;;;;;;0.50;0.50;;;21.50;83.60;;;;;;4995795;28;20189;-83
2022/07/17 12:09:00;;;;;;;0.52;0.50;;;21.50;81.30;;;;;;4994774;28;20213;-83
2022/07/17 12:11:25;;;;;;;1.08;0.60;;;21.50;81.30;;;;;;4996442;28;20201;-83
2022/07/17 12:13:51;;;;;;;0.50;0.47;;;21.70;79.90;;;;;;5009141;28;20705;-83
2022/07/17 12:16:29;;;;;;;0.60;0.50;;;21.70;79.20;;;;;;5007681;28;20180;-83
2022/07/17 12:19:15;;;;;;;2.55;0.40;;;21.80;76.50;;;;;;5015336;28;20177;-83
2022/07/17 12:21:54;;;;;;;0.40;0.40;;;21.70;75.80;;;;;;5014872;28;20161;-82
2022/07/17 12:24:27;;;;;;;0.70;0.47;;;21.90;78.00;;;;;;5014752;28;20260;-85
2022/07/17 12:26:55;;;;;;;0.98;0.50;;;21.80;77.70;;;;;;5014715;28;20169;-83
2022/07/17 12:29:21;;;;;;;2.35;0.88;;;21.70;80.20;;;;;;5012307;28;20656;-83
2022/07/17 12:31:47;;;;;;;0.40;0.40;;;21.50;81.20;;;;;;5014567;28;20201;-83
2022/07/17 12:34:13;;;;;;;0.90;0.82;;;21.20;80.60;;;;;;5013605;28;20181;-83
2022/07/17 12:36:38;;;;;;;0.57;0.57;;;21.10;82.30;;;;;;5014552;28;20228;-84
2022/07/17 12:39:04;;;;;;;0.40;0.38;;;21.20;82.00;;;;;;5014522;28;20586;-83
2022/07/17 12:41:30;;;;;;;1.17;1.00;;;21.20;84.90;;;;;;5014989;28;20653;-84
2022/07/17 12:43:55;;;;;;;0.50;0.50;;;21.10;84.70;;;;;;4996827;28;20189;-83
2022/07/17 12:46:21;;;;;;;0.65;0.57;;;21.00;85.80;;;;;;4990971;28;20879;-84
2022/07/17 12:48:46;;;;;;;1.13;0.57;;;20.90;86.80;;;;;;5002930;28;20216;-84
2022/07/17 12:51:13;;;;;;;0.70;0.50;;;20.70;87.00;;;;;;4984814;28;20193;-82
2022/07/17 12:53:40;;;;;;;0.65;0.40;;;20.60;87.60;;;;;;5003885;28;20256;-84